Terminal Aerodrome Forecast
Issued by NWS Albany, NY

Home | Current Version | Previous Version | Text Only | Print | Product List | Glossary On
Versions: 1 2 3 4 5 6 7 8 9 10 11 12 13 14 15 16 17 18 19 20
000
FTUS41 KALY 011720
TAFPOU
TAF
KPOU 011720Z 0118/0218 32004KT P6SM FEW040
     FM012300 00000KT P6SM SKC
     FM020600 00000KT 6SM BR SKC
     FM020900 00000KT 3SM BR SKC
     FM021300 VRB03KT P6SM SCT250=

USA.gov is the U.S. government's official web portal to all federal, state and local government web resources and services.